Edgewood, Washington
Current Conditions -  °F | °C
As of 11:58 PM on Friday 21 Nov 2014 (Local Time) from KTCM Reporting Station
Broken Clouds Broken Clouds  
Wind Chill: 42°   Ceiling: 8500
Heat Index: 47°   Visibility: 10mi
Dew Point: 47°   Wind: 13mph
Humidity: 99%   Direction: 210°SSW
Pressure: 29.56"   Gusts: NA
Location:  47.2018°N, 122.233°W
Report Text: KTCM 220758Z AUTO 21011KT 10SM SCT030 SCT060 BKN085 09/08 A2956 RMK AO2 RAB0713E0724 CIG 065 RWY34 SLP014 P0000 T00850083 401150064 $
Loading
Personal Weather Stations






























Interactive Weather Map New forecast layout! Learn more

10-Day Weather Forecast

Advertisements
Track Severe Weather on mobile